sensor_id;sensor_type;location;lat;lon;timestamp;temperature;humidity
23271;DHT22;11804;51.118;17.058;2022-10-19T00:01:14;13.80;99.90
23271;DHT22;11804;51.118;17.058;2022-10-19T00:03:42;13.70;99.90
23271;DHT22;11804;51.118;17.058;2022-10-19T00:06:19;13.70;99.90
23271;DHT22;11804;51.118;17.058;2022-10-19T00:08:48;13.70;99.90
23271;DHT22;11804;51.118;17.058;2022-10-19T00:11:16;13.60;99.90
23271;DHT22;11804;51.118;17.058;2022-10-19T00:13:43;13.60;99.90
23271;DHT22;11804;51.118;17.058;2022-10-19T00:16:13;13.60;99.90
23271;DHT22;11804;51.118;17.058;2022-10-19T00:18:42;13.50;99.90
23271;DHT22;11804;51.118;17.058;2022-10-19T00:21:15;13.50;99.90
23271;DHT22;11804;51.118;17.058;2022-10-19T00:23:44;13.50;99.90
23271;DHT22;11804;51.118;17.058;2022-10-19T00:26:12;13.50;99.90
23271;DHT22;11804;51.118;17.058;2022-10-19T00:28:40;13.40;99.90
23271;DHT22;11804;51.118;17.058;2022-10-19T00:31:11;13.40;99.90
23271;DHT22;11804;51.118;17.058;2022-10-19T00:33:39;13.40;99.90
23271;DHT22;11804;51.118;17.058;2022-10-19T00:36:16;13.30;99.90
23271;DHT22;11804;51.118;17.058;2022-10-19T00:38:44;13.30;99.90
23271;DHT22;11804;51.118;17.058;2022-10-19T00:41:12;13.30;99.90
23271;DHT22;11804;51.118;17.058;2022-10-19T00:44:05;13.30;99.90
23271;DHT22;11804;51.118;17.058;2022-10-19T00:46:37;13.30;99.90
23271;DHT22;11804;51.118;17.058;2022-10-19T00:49:15;13.20;99.90
23271;DHT22;11804;51.118;17.058;2022-10-19T00:51:44;13.20;99.90
23271;DHT22;11804;51.118;17.058;2022-10-19T00:54:13;13.20;99.90
23271;DHT22;11804;51.118;17.058;2022-10-19T00:56:43;13.20;99.90
23271;DHT22;11804;51.118;17.058;2022-10-19T00:59:13;13.20;99.90
23271;DHT22;11804;51.118;17.058;2022-10-19T01:01:43;13.20;99.90
23271;DHT22;11804;51.118;17.058;2022-10-19T01:04:12;13.20;99.90
23271;DHT22;11804;51.118;17.058;2022-10-19T01:06:41;13.20;99.90
23271;DHT22;11804;51.118;17.058;2022-10-19T01:09:09;13.10;99.90
23271;DHT22;11804;51.118;17.058;2022-10-19T01:28:02;13.00;99.90
23271;DHT22;11804;51.118;17.058;2022-10-19T01:30:58;13.00;99.90
23271;DHT22;11804;51.118;17.058;2022-10-19T01:44:17;12.90;99.90
23271;DHT22;11804;51.118;17.058;2022-10-19T01:46:48;12.90;99.90
23271;DHT22;11804;51.118;17.058;2022-10-19T01:51:56;13.00;99.90
23271;DHT22;11804;51.118;17.058;2022-10-19T01:54:27;13.00;99.90
23271;DHT22;11804;51.118;17.058;2022-10-19T01:56:58;13.00;99.90
23271;DHT22;11804;51.118;17.058;2022-10-19T01:59:27;13.00;99.90
23271;DHT22;11804;51.118;17.058;2022-10-19T02:01:55;13.10;99.90
23271;DHT22;11804;51.118;17.058;2022-10-19T02:04:24;13.20;99.90
23271;DHT22;11804;51.118;17.058;2022-10-19T02:06:53;13.20;99.90
23271;DHT22;11804;51.118;17.058;2022-10-19T02:09:21;13.20;99.90
23271;DHT22;11804;51.118;17.058;2022-10-19T02:11:56;13.10;99.90
23271;DHT22;11804;51.118;17.058;2022-10-19T02:14:30;13.10;99.90
23271;DHT22;11804;51.118;17.058;2022-10-19T02:17:00;13.20;99.90
23271;DHT22;11804;51.118;17.058;2022-10-19T02:19:27;13.20;99.90
23271;DHT22;11804;51.118;17.058;2022-10-19T02:21:56;13.20;99.90
23271;DHT22;11804;51.118;17.058;2022-10-19T02:24:23;13.20;99.90
23271;DHT22;11804;51.118;17.058;2022-10-19T02:26:51;13.20;99.90
23271;DHT22;11804;51.118;17.058;2022-10-19T02:29:20;13.20;99.90
23271;DHT22;11804;51.118;17.058;2022-10-19T02:31:48;13.30;99.90
23271;DHT22;11804;51.118;17.058;2022-10-19T02:34:16;13.20;99.90
23271;DHT22;11804;51.118;17.058;2022-10-19T02:36:43;13.20;99.90
23271;DHT22;11804;51.118;17.058;2022-10-19T02:39:11;13.20;99.90
23271;DHT22;11804;51.118;17.058;2022-10-19T02:41:47;13.30;99.90
23271;DHT22;11804;51.118;17.058;2022-10-19T02:44:14;13.30;99.90
23271;DHT22;11804;51.118;17.058;2022-10-19T02:46:54;13.30;99.90
23271;DHT22;11804;51.118;17.058;2022-10-19T02:49:22;13.30;99.90
23271;DHT22;11804;51.118;17.058;2022-10-19T02:52:02;13.40;99.90
23271;DHT22;11804;51.118;17.058;2022-10-19T02:54:29;13.30;99.90
23271;DHT22;11804;51.118;17.058;2022-10-19T02:56:57;13.30;99.90
23271;DHT22;11804;51.118;17.058;2022-10-19T02:59:24;13.30;99.90
23271;DHT22;11804;51.118;17.058;2022-10-19T03:01:52;13.20;99.90
23271;DHT22;11804;51.118;17.058;2022-10-19T03:04:19;13.30;99.90
23271;DHT22;11804;51.118;17.058;2022-10-19T03:06:47;13.30;99.90
23271;DHT22;11804;51.118;17.058;2022-10-19T03:09:14;13.30;99.90
23271;DHT22;11804;51.118;17.058;2022-10-19T03:11:42;13.30;99.90
23271;DHT22;11804;51.118;17.058;2022-10-19T03:14:09;13.20;99.90
23271;DHT22;11804;51.118;17.058;2022-10-19T03:16:37;13.20;99.90
23271;DHT22;11804;51.118;17.058;2022-10-19T03:19:05;13.10;99.90
23271;DHT22;11804;51.118;17.058;2022-10-19T03:21:33;13.10;99.90
23271;DHT22;11804;51.118;17.058;2022-10-19T03:24:01;13.10;99.90
23271;DHT22;11804;51.118;17.058;2022-10-19T03:26:29;13.10;99.90
23271;DHT22;11804;51.118;17.058;2022-10-19T03:28:56;13.10;99.90
23271;DHT22;11804;51.118;17.058;2022-10-19T03:31:24;13.10;99.90
23271;DHT22;11804;51.118;17.058;2022-10-19T03:33:53;13.10;99.90
23271;DHT22;11804;51.118;17.058;2022-10-19T03:36:28;13.10;99.90
23271;DHT22;11804;51.118;17.058;2022-10-19T03:38:59;13.10;99.90
23271;DHT22;11804;51.118;17.058;2022-10-19T03:41:29;13.10;99.90
23271;DHT22;11804;51.118;17.058;2022-10-19T03:43:57;13.10;99.90
23271;DHT22;11804;51.118;17.058;2022-10-19T03:46:26;13.00;99.90
23271;DHT22;11804;51.118;17.058;2022-10-19T03:48:54;12.90;99.90
23271;DHT22;11804;51.118;17.058;2022-10-19T03:51:24;12.80;99.90
23271;DHT22;11804;51.118;17.058;2022-10-19T03:53:53;12.80;99.90
23271;DHT22;11804;51.118;17.058;2022-10-19T03:56:23;12.70;99.90
23271;DHT22;11804;51.118;17.058;2022-10-19T03:58:54;12.60;99.90
23271;DHT22;11804;51.118;17.058;2022-10-19T04:01:24;12.60;99.90
23271;DHT22;11804;51.118;17.058;2022-10-19T04:03:57;12.60;99.90
23271;DHT22;11804;51.118;17.058;2022-10-19T04:06:32;12.60;99.90
23271;DHT22;11804;51.118;17.058;2022-10-19T04:08:56;12.50;99.90
23271;DHT22;11804;51.118;17.058;2022-10-19T04:11:26;12.50;99.90
23271;DHT22;11804;51.118;17.058;2022-10-19T04:13:55;12.50;99.90
23271;DHT22;11804;51.118;17.058;2022-10-19T04:16:25;12.50;99.90
23271;DHT22;11804;51.118;17.058;2022-10-19T04:18:53;12.50;99.90
23271;DHT22;11804;51.118;17.058;2022-10-19T04:21:35;12.50;99.90
23271;DHT22;11804;51.118;17.058;2022-10-19T04:24:06;12.50;99.90
23271;DHT22;11804;51.118;17.058;2022-10-19T04:26:40;12.50;99.90
23271;DHT22;11804;51.118;17.058;2022-10-19T04:29:08;12.60;99.90
23271;DHT22;11804;51.118;17.058;2022-10-19T04:31:37;12.60;99.90
23271;DHT22;11804;51.118;17.058;2022-10-19T04:34:06;12.50;99.90
23271;DHT22;11804;51.118;17.058;2022-10-19T04:36:33;12.50;99.90
23271;DHT22;11804;51.118;17.058;2022-10-19T04:39:01;12.50;99.90
23271;DHT22;11804;51.118;17.058;2022-10-19T04:41:29;12.50;99.90
23271;DHT22;11804;51.118;17.058;2022-10-19T04:44:00;12.50;99.90
23271;DHT22;11804;51.118;17.058;2022-10-19T04:46:29;12.40;99.90
23271;DHT22;11804;51.118;17.058;2022-10-19T04:48:57;12.40;99.90
23271;DHT22;11804;51.118;17.058;2022-10-19T04:51:26;12.30;99.90
23271;DHT22;11804;51.118;17.058;2022-10-19T04:53:54;12.30;99.90
23271;DHT22;11804;51.118;17.058;2022-10-19T04:56:24;12.30;99.90
23271;DHT22;11804;51.118;17.058;2022-10-19T04:58:54;12.20;99.90
23271;DHT22;11804;51.118;17.058;2022-10-19T05:01:24;12.10;99.90
23271;DHT22;11804;51.118;17.058;2022-10-19T05:03:55;12.10;99.90
23271;DHT22;11804;51.118;17.058;2022-10-19T05:06:23;12.10;99.90
23271;DHT22;11804;51.118;17.058;2022-10-19T05:08:50;12.10;99.90
23271;DHT22;11804;51.118;17.058;2022-10-19T05:11:18;12.10;99.90
23271;DHT22;11804;51.118;17.058;2022-10-19T05:13:46;12.10;99.90
23271;DHT22;11804;51.118;17.058;2022-10-19T05:16:16;12.00;99.90
23271;DHT22;11804;51.118;17.058;2022-10-19T05:18:49;12.10;99.90
23271;DHT22;11804;51.118;17.058;2022-10-19T05:21:18;12.00;99.90
23271;DHT22;11804;51.118;17.058;2022-10-19T05:23:51;12.10;99.90
23271;DHT22;11804;51.118;17.058;2022-10-19T05:26:21;12.10;99.90
23271;DHT22;11804;51.118;17.058;2022-10-19T05:28:51;12.10;99.90
23271;DHT22;11804;51.118;17.058;2022-10-19T05:31:24;12.10;99.90
23271;DHT22;11804;51.118;17.058;2022-10-19T05:33:52;12.10;99.90
23271;DHT22;11804;51.118;17.058;2022-10-19T05:36:37;12.10;99.90
23271;DHT22;11804;51.118;17.058;2022-10-19T05:39:03;12.10;99.90
23271;DHT22;11804;51.118;17.058;2022-10-19T05:41:31;12.10;99.90
23271;DHT22;11804;51.118;17.058;2022-10-19T05:44:00;12.20;99.90
23271;DHT22;11804;51.118;17.058;2022-10-19T05:46:28;12.20;99.90
23271;DHT22;11804;51.118;17.058;2022-10-19T05:48:56;12.20;99.90
23271;DHT22;11804;51.118;17.058;2022-10-19T05:51:25;12.20;99.90
23271;DHT22;11804;51.118;17.058;2022-10-19T05:53:54;12.30;99.90
23271;DHT22;11804;51.118;17.058;2022-10-19T05:56:24;12.30;99.90
23271;DHT22;11804;51.118;17.058;2022-10-19T05:58:53;12.30;99.90
23271;DHT22;11804;51.118;17.058;2022-10-19T06:01:22;12.30;99.90
23271;DHT22;11804;51.118;17.058;2022-10-19T06:03:51;12.30;99.90
23271;DHT22;11804;51.118;17.058;2022-10-19T06:06:20;12.30;99.90
23271;DHT22;11804;51.118;17.058;2022-10-19T06:08:48;12.30;99.90
23271;DHT22;11804;51.118;17.058;2022-10-19T06:11:31;12.30;99.90
23271;DHT22;11804;51.118;17.058;2022-10-19T06:13:57;12.30;99.90
23271;DHT22;11804;51.118;17.058;2022-10-19T06:16:26;12.30;99.90
23271;DHT22;11804;51.118;17.058;2022-10-19T06:18:55;12.40;99.90
23271;DHT22;11804;51.118;17.058;2022-10-19T06:21:25;12.40;99.90
23271;DHT22;11804;51.118;17.058;2022-10-19T06:23:57;12.40;99.90
23271;DHT22;11804;51.118;17.058;2022-10-19T06:26:25;12.30;99.90
23271;DHT22;11804;51.118;17.058;2022-10-19T06:28:55;12.30;99.90
23271;DHT22;11804;51.118;17.058;2022-10-19T06:31:29;12.40;99.90
23271;DHT22;11804;51.118;17.058;2022-10-19T06:33:57;12.40;99.90
23271;DHT22;11804;51.118;17.058;2022-10-19T06:36:27;12.50;99.90
23271;DHT22;11804;51.118;17.058;2022-10-19T06:38:55;12.50;99.90
23271;DHT22;11804;51.118;17.058;2022-10-19T06:41:22;12.50;99.90
23271;DHT22;11804;51.118;17.058;2022-10-19T06:43:51;12.40;99.90
23271;DHT22;11804;51.118;17.058;2022-10-19T06:46:21;12.30;99.90
23271;DHT22;11804;51.118;17.058;2022-10-19T06:51:20;12.40;99.90
23271;DHT22;11804;51.118;17.058;2022-10-19T06:53:49;12.40;99.90
23271;DHT22;11804;51.118;17.058;2022-10-19T06:56:16;12.50;99.90
23271;DHT22;11804;51.118;17.058;2022-10-19T06:58:44;12.50;99.90
23271;DHT22;11804;51.118;17.058;2022-10-19T07:01:12;12.60;99.90
23271;DHT22;11804;51.118;17.058;2022-10-19T07:03:40;12.50;99.90
23271;DHT22;11804;51.118;17.058;2022-10-19T07:06:11;12.60;99.90
23271;DHT22;11804;51.118;17.058;2022-10-19T07:08:40;12.60;99.90
23271;DHT22;11804;51.118;17.058;2022-10-19T07:11:11;12.60;99.90
23271;DHT22;11804;51.118;17.058;2022-10-19T07:13:38;12.80;99.90
23271;DHT22;11804;51.118;17.058;2022-10-19T07:16:12;12.90;99.90
23271;DHT22;11804;51.118;17.058;2022-10-19T07:18:41;12.90;99.90
23271;DHT22;11804;51.118;17.058;2022-10-19T07:21:11;13.10;99.90
23271;DHT22;11804;51.118;17.058;2022-10-19T07:23:41;13.00;99.90
23271;DHT22;11804;51.118;17.058;2022-10-19T07:26:16;13.10;99.90
23271;DHT22;11804;51.118;17.058;2022-10-19T07:28:41;13.10;99.90
23271;DHT22;11804;51.118;17.058;2022-10-19T07:31:12;13.10;99.90
23271;DHT22;11804;51.118;17.058;2022-10-19T07:33:39;13.20;99.90
23271;DHT22;11804;51.118;17.058;2022-10-19T07:36:08;13.20;99.90
23271;DHT22;11804;51.118;17.058;2022-10-19T07:38:36;13.20;99.90
23271;DHT22;11804;51.118;17.058;2022-10-19T07:41:10;13.20;99.90
23271;DHT22;11804;51.118;17.058;2022-10-19T07:43:42;13.30;99.90
23271;DHT22;11804;51.118;17.058;2022-10-19T07:46:24;13.40;99.90
23271;DHT22;11804;51.118;17.058;2022-10-19T07:48:54;13.40;99.90
23271;DHT22;11804;51.118;17.058;2022-10-19T07:51:22;13.40;99.90
23271;DHT22;11804;51.118;17.058;2022-10-19T07:53:49;13.40;99.90
23271;DHT22;11804;51.118;17.058;2022-10-19T07:56:19;13.40;99.90
23271;DHT22;11804;51.118;17.058;2022-10-19T07:58:49;13.40;99.90
23271;DHT22;11804;51.118;17.058;2022-10-19T08:01:19;13.40;99.90
23271;DHT22;11804;51.118;17.058;2022-10-19T08:03:47;13.50;99.90
23271;DHT22;11804;51.118;17.058;2022-10-19T08:06:16;13.50;99.90
23271;DHT22;11804;51.118;17.058;2022-10-19T08:08:46;13.50;99.90
23271;DHT22;11804;51.118;17.058;2022-10-19T08:11:17;13.40;99.90
23271;DHT22;11804;51.118;17.058;2022-10-19T08:13:45;13.40;99.90
23271;DHT22;11804;51.118;17.058;2022-10-19T08:16:27;13.50;99.90
23271;DHT22;11804;51.118;17.058;2022-10-19T08:19:03;13.50;99.90
23271;DHT22;11804;51.118;17.058;2022-10-19T08:21:33;13.50;99.90
23271;DHT22;11804;51.118;17.058;2022-10-19T08:24:01;13.50;99.90
23271;DHT22;11804;51.118;17.058;2022-10-19T08:26:30;13.70;99.90
23271;DHT22;11804;51.118;17.058;2022-10-19T08:29:04;13.80;99.90
23271;DHT22;11804;51.118;17.058;2022-10-19T08:31:33;13.80;99.90
23271;DHT22;11804;51.118;17.058;2022-10-19T08:34:00;13.80;99.90
23271;DHT22;11804;51.118;17.058;2022-10-19T08:36:28;13.90;99.90
23271;DHT22;11804;51.118;17.058;2022-10-19T08:38:58;14.00;99.90
23271;DHT22;11804;51.118;17.058;2022-10-19T08:49:48;14.10;99.90
23271;DHT22;11804;51.118;17.058;2022-10-19T08:52:25;14.10;99.90
23271;DHT22;11804;51.118;17.058;2022-10-19T08:54:52;14.10;99.90
23271;DHT22;11804;51.118;17.058;2022-10-19T09:05:23;14.60;99.90
23271;DHT22;11804;51.118;17.058;2022-10-19T09:07:52;15.00;99.90
23271;DHT22;11804;51.118;17.058;2022-10-19T09:10:29;15.10;99.90
23271;DHT22;11804;51.118;17.058;2022-10-19T09:12:59;15.10;99.90
23271;DHT22;11804;51.118;17.058;2022-10-19T09:15:43;15.00;99.90
23271;DHT22;11804;51.118;17.058;2022-10-19T09:18:13;15.10;99.90
23271;DHT22;11804;51.118;17.058;2022-10-19T09:20:43;15.10;99.90
23271;DHT22;11804;51.118;17.058;2022-10-19T09:25:52;15.40;99.90
23271;DHT22;11804;51.118;17.058;2022-10-19T09:28:26;15.50;99.90
23271;DHT22;11804;51.118;17.058;2022-10-19T09:30:52;15.40;99.90
23271;DHT22;11804;51.118;17.058;2022-10-19T09:33:30;15.20;99.90
23271;DHT22;11804;51.118;17.058;2022-10-19T09:35:58;15.00;99.90
23271;DHT22;11804;51.118;17.058;2022-10-19T09:38:28;14.90;99.90
23271;DHT22;11804;51.118;17.058;2022-10-19T09:40:57;14.90;99.90
23271;DHT22;11804;51.118;17.058;2022-10-19T09:43:26;15.10;99.90
23271;DHT22;11804;51.118;17.058;2022-10-19T09:46:12;15.30;99.90
23271;DHT22;11804;51.118;17.058;2022-10-19T09:48:52;15.20;99.90
23271;DHT22;11804;51.118;17.058;2022-10-19T09:51:20;15.00;99.90
23271;DHT22;11804;51.118;17.058;2022-10-19T09:53:55;14.70;99.90
23271;DHT22;11804;51.118;17.058;2022-10-19T09:56:26;14.70;99.90
23271;DHT22;11804;51.118;17.058;2022-10-19T09:58:56;14.70;99.90
23271;DHT22;11804;51.118;17.058;2022-10-19T10:01:32;14.60;99.90
23271;DHT22;11804;51.118;17.058;2022-10-19T10:04:14;14.50;99.90
23271;DHT22;11804;51.118;17.058;2022-10-19T10:06:43;14.60;99.90
23271;DHT22;11804;51.118;17.058;2022-10-19T10:09:16;14.70;99.90
23271;DHT22;11804;51.118;17.058;2022-10-19T10:11:46;14.70;99.90
23271;DHT22;11804;51.118;17.058;2022-10-19T10:14:31;14.70;99.90
23271;DHT22;11804;51.118;17.058;2022-10-19T10:17:14;14.60;99.90
23271;DHT22;11804;51.118;17.058;2022-10-19T10:22:33;14.70;99.90
23271;DHT22;11804;51.118;17.058;2022-10-19T10:25:10;14.80;99.90
23271;DHT22;11804;51.118;17.058;2022-10-19T10:27:36;14.90;99.90
23271;DHT22;11804;51.118;17.058;2022-10-19T10:30:06;14.90;99.90
23271;DHT22;11804;51.118;17.058;2022-10-19T10:32:40;14.90;99.90
23271;DHT22;11804;51.118;17.058;2022-10-19T10:35:20;14.80;99.90
23271;DHT22;11804;51.118;17.058;2022-10-19T10:37:46;14.60;99.90
23271;DHT22;11804;51.118;17.058;2022-10-19T10:40:28;14.40;99.90
23271;DHT22;11804;51.118;17.058;2022-10-19T10:43:05;14.30;99.90
23271;DHT22;11804;51.118;17.058;2022-10-19T10:45:42;14.30;99.90
23271;DHT22;11804;51.118;17.058;2022-10-19T10:50:47;14.50;99.90
23271;DHT22;11804;51.118;17.058;2022-10-19T10:53:34;14.70;99.90
23271;DHT22;11804;51.118;17.058;2022-10-19T10:56:03;14.90;99.00
23271;DHT22;11804;51.118;17.058;2022-10-19T11:01:06;15.10;94.70
23271;DHT22;11804;51.118;17.058;2022-10-19T11:03:36;15.00;91.80
23271;DHT22;11804;51.118;17.058;2022-10-19T11:06:07;14.70;90.30
23271;DHT22;11804;51.118;17.058;2022-10-19T11:08:50;14.60;89.20
23271;DHT22;11804;51.118;17.058;2022-10-19T11:11:19;14.50;91.00
23271;DHT22;11804;51.118;17.058;2022-10-19T11:13:50;14.50;91.50
23271;DHT22;11804;51.118;17.058;2022-10-19T11:16:23;14.60;91.80
23271;DHT22;11804;51.118;17.058;2022-10-19T11:19:01;14.60;91.60
23271;DHT22;11804;51.118;17.058;2022-10-19T11:21:32;14.60;90.40
23271;DHT22;11804;51.118;17.058;2022-10-19T11:24:21;14.40;87.10
23271;DHT22;11804;51.118;17.058;2022-10-19T11:30:09;14.30;86.80
23271;DHT22;11804;51.118;17.058;2022-10-19T11:35:33;14.40;87.50
23271;DHT22;11804;51.118;17.058;2022-10-19T11:38:22;14.50;87.90
23271;DHT22;11804;51.118;17.058;2022-10-19T11:41:09;14.50;85.50
23271;DHT22;11804;51.118;17.058;2022-10-19T11:46:24;14.40;90.00
23271;DHT22;11804;51.118;17.058;2022-10-19T11:51:57;14.20;93.10
23271;DHT22;11804;51.118;17.058;2022-10-19T11:54:37;14.10;95.60
23271;DHT22;11804;51.118;17.058;2022-10-19T12:00:09;14.00;98.20
23271;DHT22;11804;51.118;17.058;2022-10-19T12:02:59;14.10;99.30
23271;DHT22;11804;51.118;17.058;2022-10-19T12:05:40;14.20;99.80
23271;DHT22;11804;51.118;17.058;2022-10-19T12:08:32;14.40;99.40
23271;DHT22;11804;51.118;17.058;2022-10-19T12:13:59;14.60;99.20
23271;DHT22;11804;51.118;17.058;2022-10-19T12:16:27;14.60;99.90
23271;DHT22;11804;51.118;17.058;2022-10-19T12:18:56;14.70;99.90
23271;DHT22;11804;51.118;17.058;2022-10-19T12:21:32;14.60;99.90
23271;DHT22;11804;51.118;17.058;2022-10-19T12:23:57;14.50;99.90
23271;DHT22;11804;51.118;17.058;2022-10-19T12:26:33;14.40;99.90
23271;DHT22;11804;51.118;17.058;2022-10-19T12:29:02;14.10;99.90
23271;DHT22;11804;51.118;17.058;2022-10-19T12:31:32;14.00;99.90
23271;DHT22;11804;51.118;17.058;2022-10-19T12:34:03;14.00;99.90
23271;DHT22;11804;51.118;17.058;2022-10-19T12:39:20;14.00;99.90
23271;DHT22;11804;51.118;17.058;2022-10-19T12:42:09;14.10;99.90
23271;DHT22;11804;51.118;17.058;2022-10-19T12:47:23;14.20;99.90
23271;DHT22;11804;51.118;17.058;2022-10-19T12:49:53;14.10;99.90
23271;DHT22;11804;51.118;17.058;2022-10-19T12:52:35;14.10;99.90
23271;DHT22;11804;51.118;17.058;2022-10-19T12:55:17;14.10;99.90
23271;DHT22;11804;51.118;17.058;2022-10-19T12:57:38;14.10;99.90
23271;DHT22;11804;51.118;17.058;2022-10-19T13:00:55;14.00;99.90
23271;DHT22;11804;51.118;17.058;2022-10-19T13:02:40;14.00;99.90
23271;DHT22;11804;51.118;17.058;2022-10-19T13:05:18;14.00;99.90
23271;DHT22;11804;51.118;17.058;2022-10-19T13:07:38;14.00;99.90
23271;DHT22;11804;51.118;17.058;2022-10-19T13:10:15;14.00;99.90
23271;DHT22;11804;51.118;17.058;2022-10-19T13:12:45;14.00;99.90
23271;DHT22;11804;51.118;17.058;2022-10-19T13:18:14;13.90;99.90
23271;DHT22;11804;51.118;17.058;2022-10-19T13:20:50;13.80;99.90
23271;DHT22;11804;51.118;17.058;2022-10-19T13:26:23;13.80;99.90
23271;DHT22;11804;51.118;17.058;2022-10-19T13:28:52;13.90;99.90
23271;DHT22;11804;51.118;17.058;2022-10-19T13:31:30;13.90;99.90
23271;DHT22;11804;51.118;17.058;2022-10-19T13:33:58;13.90;99.90
23271;DHT22;11804;51.118;17.058;2022-10-19T13:36:26;13.90;99.90
23271;DHT22;11804;51.118;17.058;2022-10-19T13:39:03;13.80;99.90
23271;DHT22;11804;51.118;17.058;2022-10-19T13:41:44;13.80;99.90
23271;DHT22;11804;51.118;17.058;2022-10-19T13:44:18;13.80;99.90
23271;DHT22;11804;51.118;17.058;2022-10-19T13:47:55;13.80;99.90
23271;DHT22;11804;51.118;17.058;2022-10-19T14:01:28;13.80;99.90
23271;DHT22;11804;51.118;17.058;2022-10-19T14:06:35;13.80;99.90
23271;DHT22;11804;51.118;17.058;2022-10-19T14:09:26;13.70;99.90
23271;DHT22;11804;51.118;17.058;2022-10-19T14:11:53;13.70;99.90
23271;DHT22;11804;51.118;17.058;2022-10-19T14:14:23;13.70;99.90
23271;DHT22;11804;51.118;17.058;2022-10-19T14:17:00;13.60;99.90
23271;DHT22;11804;51.118;17.058;2022-10-19T14:19:49;13.50;99.90
23271;DHT22;11804;51.118;17.058;2022-10-19T14:22:16;13.50;99.90
23271;DHT22;11804;51.118;17.058;2022-10-19T14:24:34;13.80;99.90
23271;DHT22;11804;51.118;17.058;2022-10-19T14:27:04;14.20;99.90
23271;DHT22;11804;51.118;17.058;2022-10-19T14:29:47;14.40;99.90
23271;DHT22;11804;51.118;17.058;2022-10-19T14:32:16;14.30;99.90
23271;DHT22;11804;51.118;17.058;2022-10-19T14:34:46;14.20;99.90
23271;DHT22;11804;51.118;17.058;2022-10-19T14:37:17;14.10;99.90
23271;DHT22;11804;51.118;17.058;2022-10-19T14:40:03;14.00;99.90
23271;DHT22;11804;51.118;17.058;2022-10-19T14:42:44;13.80;99.90
23271;DHT22;11804;51.118;17.058;2022-10-19T14:45:15;13.70;99.90
23271;DHT22;11804;51.118;17.058;2022-10-19T14:50:22;13.70;99.90
23271;DHT22;11804;51.118;17.058;2022-10-19T14:52:53;13.60;99.90
23271;DHT22;11804;51.118;17.058;2022-10-19T14:55:21;13.60;99.90
23271;DHT22;11804;51.118;17.058;2022-10-19T14:57:50;13.50;99.90
23271;DHT22;11804;51.118;17.058;2022-10-19T15:00:21;13.50;99.90
23271;DHT22;11804;51.118;17.058;2022-10-19T15:05:22;13.30;99.90
23271;DHT22;11804;51.118;17.058;2022-10-19T15:07:50;13.20;99.90
23271;DHT22;11804;51.118;17.058;2022-10-19T15:10:28;13.20;99.90
23271;DHT22;11804;51.118;17.058;2022-10-19T15:13:03;13.20;99.90
23271;DHT22;11804;51.118;17.058;2022-10-19T15:15:32;13.10;99.90
23271;DHT22;11804;51.118;17.058;2022-10-19T15:18:03;13.10;99.90
23271;DHT22;11804;51.118;17.058;2022-10-19T15:20:39;13.00;99.90
23271;DHT22;11804;51.118;17.058;2022-10-19T15:26:11;12.90;99.90
23271;DHT22;11804;51.118;17.058;2022-10-19T15:28:35;12.80;99.90
23271;DHT22;11804;51.118;17.058;2022-10-19T15:31:23;12.80;99.90
23271;DHT22;11804;51.118;17.058;2022-10-19T15:33:59;12.80;99.90
23271;DHT22;11804;51.118;17.058;2022-10-19T15:36:30;12.80;99.90
23271;DHT22;11804;51.118;17.058;2022-10-19T15:39:01;12.80;99.90
23271;DHT22;11804;51.118;17.058;2022-10-19T15:41:39;12.80;99.90
23271;DHT22;11804;51.118;17.058;2022-10-19T15:44:05;12.80;99.90
23271;DHT22;11804;51.118;17.058;2022-10-19T15:51:49;12.90;99.90
23271;DHT22;11804;51.118;17.058;2022-10-19T15:54:18;12.90;99.90
23271;DHT22;11804;51.118;17.058;2022-10-19T15:56:49;12.90;99.90
23271;DHT22;11804;51.118;17.058;2022-10-19T15:59:18;12.90;99.90
23271;DHT22;11804;51.118;17.058;2022-10-19T16:01:47;12.90;99.90
23271;DHT22;11804;51.118;17.058;2022-10-19T16:04:15;12.90;99.90
23271;DHT22;11804;51.118;17.058;2022-10-19T16:06:44;12.90;99.90
23271;DHT22;11804;51.118;17.058;2022-10-19T16:09:19;12.90;99.90
23271;DHT22;11804;51.118;17.058;2022-10-19T16:11:43;12.90;99.90
23271;DHT22;11804;51.118;17.058;2022-10-19T16:14:10;12.80;99.90
23271;DHT22;11804;51.118;17.058;2022-10-19T16:16:38;12.90;99.90
23271;DHT22;11804;51.118;17.058;2022-10-19T16:19:09;12.90;99.90
23271;DHT22;11804;51.118;17.058;2022-10-19T16:21:36;12.80;99.90
23271;DHT22;11804;51.118;17.058;2022-10-19T16:24:04;12.80;99.90
23271;DHT22;11804;51.118;17.058;2022-10-19T16:26:32;12.80;99.90
23271;DHT22;11804;51.118;17.058;2022-10-19T16:29:00;12.80;99.90
23271;DHT22;11804;51.118;17.058;2022-10-19T16:31:28;12.70;99.90
23271;DHT22;11804;51.118;17.058;2022-10-19T16:33:57;12.70;99.90
23271;DHT22;11804;51.118;17.058;2022-10-19T16:36:24;12.70;99.90
23271;DHT22;11804;51.118;17.058;2022-10-19T16:38:52;12.70;99.90
23271;DHT22;11804;51.118;17.058;2022-10-19T16:41:19;12.70;99.90
23271;DHT22;11804;51.118;17.058;2022-10-19T16:43:52;12.70;99.90
23271;DHT22;11804;51.118;17.058;2022-10-19T16:46:19;12.70;99.90
23271;DHT22;11804;51.118;17.058;2022-10-19T16:48:47;12.70;99.90
23271;DHT22;11804;51.118;17.058;2022-10-19T16:53:50;12.70;99.90
23271;DHT22;11804;51.118;17.058;2022-10-19T16:56:17;12.60;99.90
23271;DHT22;11804;51.118;17.058;2022-10-19T16:58:45;12.60;99.90
23271;DHT22;11804;51.118;17.058;2022-10-19T17:01:17;12.70;99.90
23271;DHT22;11804;51.118;17.058;2022-10-19T17:03:46;12.60;99.90
23271;DHT22;11804;51.118;17.058;2022-10-19T17:06:15;12.60;99.90
23271;DHT22;11804;51.118;17.058;2022-10-19T17:08:44;12.60;99.90
23271;DHT22;11804;51.118;17.058;2022-10-19T17:11:18;12.60;99.90
23271;DHT22;11804;51.118;17.058;2022-10-19T17:13:43;12.60;99.90
23271;DHT22;11804;51.118;17.058;2022-10-19T17:16:12;12.60;99.90
23271;DHT22;11804;51.118;17.058;2022-10-19T17:18:41;12.50;99.90
23271;DHT22;11804;51.118;17.058;2022-10-19T17:21:13;12.50;99.90
23271;DHT22;11804;51.118;17.058;2022-10-19T17:23:42;12.50;99.90
23271;DHT22;11804;51.118;17.058;2022-10-19T17:26:10;12.50;99.90
23271;DHT22;11804;51.118;17.058;2022-10-19T17:28:39;12.50;99.90
23271;DHT22;11804;51.118;17.058;2022-10-19T17:31:09;12.50;99.90
23271;DHT22;11804;51.118;17.058;2022-10-19T17:33:38;12.50;99.90
23271;DHT22;11804;51.118;17.058;2022-10-19T17:36:08;12.50;99.90
23271;DHT22;11804;51.118;17.058;2022-10-19T17:38:37;12.40;99.90